TimeEST,TemperatureF,Dew PointF,Humidity,Sea Level PressureIn,VisibilityMPH,Wind Direction,Wind SpeedMPH,Gust SpeedMPH,PrecipitationIn,Events,Conditions,WindDirDegrees,DateUTC
12:53 AM,39.9,25.0,55,29.99,10.0,SW,9.2,-,N/A,,Mostly Cloudy,230,2013-01-01 05:53:00
1:53 AM,41.0,26.1,55,29.99,10.0,SW,6.9,-,N/A,,Overcast,220,2013-01-01 06:53:00
2:53 AM,39.0,26.1,60,29.99,10.0,WSW,6.9,-,N/A,,Overcast,250,2013-01-01 07:53:00
3:53 AM,39.0,26.1,60,29.98,10.0,West,9.2,-,N/A,,Scattered Clouds,270,2013-01-01 08:53:00
4:53 AM,37.0,26.1,65,29.99,10.0,WSW,6.9,-,N/A,,Mostly Cloudy,240,2013-01-01 09:53:00
5:53 AM,37.9,26.1,62,29.98,10.0,West,4.6,-,N/A,,Partly Cloudy,260,2013-01-01 10:53:00
7:53 AM,37.9,27.0,65,29.98,10.0,West,5.8,-,N/A,,Overcast,260,2013-01-01 12:53:00
8:53 AM,37.9,27.0,65,30.00,10.0,West,6.9,-,N/A,,Overcast,260,2013-01-01 13:53:00
9:53 AM,39.0,27.0,62,30.00,10.0,West,5.8,-,N/A,,Overcast,260,2013-01-01 14:53:00
10:53 AM,39.0,28.0,65,29.99,10.0,WSW,5.8,-,N/A,,Overcast,250,2013-01-01 15:53:00
11:53 AM,39.9,26.1,58,29.97,10.0,Calm,Calm,-,N/A,,Overcast,0,2013-01-01 16:53:00
12:53 PM,39.9,27.0,60,29.94,10.0,Calm,Calm,-,N/A,,Overcast,0,2013-01-01 17:53:00
1:53 PM,39.9,27.0,60,29.93,10.0,NW,5.8,-,N/A,,Overcast,310,2013-01-01 18:53:00
2:53 PM,39.9,27.0,60,29.94,10.0,NW,8.1,-,N/A,,Overcast,310,2013-01-01 19:53:00
3:53 PM,39.9,27.0,60,29.95,10.0,WNW,6.9,-,N/A,,Overcast,290,2013-01-01 20:53:00
4:53 PM,39.0,27.0,62,29.96,10.0,WNW,11.5,-,N/A,,Overcast,300,2013-01-01 21:53:00
5:53 PM,39.0,27.0,62,29.99,10.0,WNW,8.1,-,N/A,,Overcast,290,2013-01-01 22:53:00
6:42 PM,37.4,28.4,70,29.98,10.0,NW,5.8,-,N/A,,Overcast,320,2013-01-01 23:42:00
6:53 PM,37.9,28.0,68,30.01,10.0,NW,5.8,-,N/A,,Overcast,320,2013-01-01 23:53:00
7:53 PM,37.0,28.0,70,30.00,10.0,NE,4.6,-,N/A,,Overcast,40,2013-01-02 00:53:00
8:45 PM,35.6,28.4,75,30.00,10.0,Calm,Calm,-,N/A,,Overcast,0,2013-01-02 01:45:00
8:53 PM,37.0,27.0,67,30.02,10.0,WNW,6.9,-,N/A,,Overcast,300,2013-01-02 01:53:00
9:09 PM,37.4,26.6,65,30.00,10.0,West,4.6,-,N/A,,Overcast,280,2013-01-02 02:09:00
9:23 PM,35.6,26.6,70,30.01,10.0,NW,3.5,-,N/A,,Overcast,310,2013-01-02 02:23:00
9:53 PM,36.0,27.0,70,30.03,10.0,NNW,4.6,-,N/A,,Overcast,340,2013-01-02 02:53:00
10:53 PM,36.0,26.1,67,30.04,10.0,NW,6.9,-,N/A,,Clear,310,2013-01-02 03:53:00
11:53 PM,35.1,23.0,61,30.02,10.0,NNW,8.1,-,N/A,,Scattered Clouds,340,2013-01-02 04:53:00